Informes METAR

 

KSJC - San Jose, California, USA
Distancia de la estación: NE 14km
Actualización: 21/02/2024 01:53
Muy nuboso
Muy nuboso
 Viento de SE
Viento: SE 15 km/h
Temperatura: 13°C
Rocío: 9°C
Humedad: 77%
Barómetro: 1016.9 hPa
Nubes: Muy nuboso
Visibilidad: 16 km
Detalles de las nubes: Poco nuboso 457 m
Parcialmente nuboso 1067 m
Muy nuboso 1524 m
2024/02/21 00:53 KSJC 210053Z 13008KT 10SM FEW015 SCT035 BKN050 13/09 A3003 RMK AO2 SLP168 T01330094
KNUQ - Moffett Nas/Mtn, California, USA
Distancia de la estación: N 14km
Actualización: 21/02/2024 02:35
Muy nuboso
Muy nuboso
 Viento de SE
Viento: SE 13 km/h
Temperatura: 12°C
Rocío: 10°C
Humedad: 88%
Barómetro: 1016.6 hPa
Nubes: Muy nuboso
Visibilidad: 13 km
Detalles de las nubes: Poco nuboso 213 m
Parcialmente nuboso 1981 m
Muy nuboso 2286 m
2024/02/21 01:35 KNUQ 210135Z AUTO 13007KT 8SM FEW007 SCT065 BKN075 12/10 A3002 RMK AO2
 
KPAO - Palo Alto, California, USA
Distancia de la estación: NNO 23km
Actualización: 21/02/2024 02:47
Parcialmente nuboso
Parcialmente nuboso
 Viento de SSE
Viento: SSE 9 km/h
Temperatura: 12°C
Rocío: 9°C
Humedad: 82%
Barómetro: 1016.9 hPa
Nubes: Parcialmente nuboso
Visibilidad: 16 km
Detalles de las nubes: Poco nuboso 610 m
Parcialmente nuboso 1524 m
2024/02/21 01:47 KPAO 210147Z 15005KT 10SM FEW020 SCT050 12/09 A3003
KRHV - San Jose/Reid, California, USA
Distancia de la estación: ENE 19km
Actualización: 21/02/2024 00:47
NOT Current
Cubierto
Cubierto
 Viento de ENE
Viento: ENE 7 km/h
Temperatura: 11°C
Rocío: 9°C
Humedad: 88%
Barómetro: 1017.6 hPa
Nubes: Cubierto
Visibilidad: 5 km
Detalles de las nubes: Cubierto 914 m
2024/02/20 23:47 KRHV 202347Z 07004KT 3SM OVC030 11/09 A3005
 
KOAK - Oakland, California, USA
Distancia de la estación: NNO 50km
Actualización: 21/02/2024 02:24
Lluvia débil, Cubierto
Lluvia débil, Cubierto
 Viento de ESE
Viento: ESE 6 km/h
Temperatura: 12°C
Rocío: 10°C
Humedad: 88%
Barómetro: 1017.3 hPa
Resumen: Lluvia débil
Nubes: Cubierto
Visibilidad: 16 km
Detalles de las nubes: Muy nuboso 640 m
Cubierto 914 m
2024/02/21 01:24 KOAK 210124Z 11003KT 10SM -RA BKN021 OVC030 12/10 A3004 RMK AO2 RAB15 P0000 T01170100
KSQL - San Carlos Airpo, California, USA
Distancia de la estación: NO 34km
Actualización: 21/02/2024 02:47
Muy nuboso
Muy nuboso
 Viento de ESE
Viento: ESE 11 km/h
Temperatura: 12°C
Rocío: 10°C
Humedad: 88%
Barómetro: 1016.9 hPa
Nubes: Muy nuboso
Visibilidad: 16 km
Detalles de las nubes: Muy nuboso 1158 m
2024/02/21 01:47 KSQL 210147Z 11006KT 10SM BKN038 12/10 A3003
 
KSFO - San Francisco, California, USA
Distancia de la estación: NO 49km
Actualización: 21/02/2024 02:16
Muy nuboso
Muy nuboso
 Viento de ENE
Viento: ENE 7 km/h
Temperatura: 12°C
Rocío: 9°C
Humedad: 82%
Barómetro: 1016.6 hPa
Nubes: Muy nuboso
Visibilidad: 16 km
Detalles de las nubes: Poco nuboso 518 m
Muy nuboso 671 m
Muy nuboso 2743 m
2024/02/21 01:16 KSFO 210116Z 06004KT 10SM FEW017 BKN022 BKN090 12/09 A3002 RMK AO2 T01170089
KE16 - San Martin, California, USA
Distancia de la estación: ESE 43km
Actualización: 21/02/2024 02:35
Cubierto
Cubierto
 Viento de ESE
Viento: ESE 6 km/h
Temperatura: 12°C
Rocío: 10°C
Humedad: 88%
Barómetro: 1017.9 hPa
Nubes: Cubierto
Visibilidad: 16 km
Detalles de las nubes: Parcialmente nuboso 549 m
Cubierto 1036 m
2024/02/21 01:35 KE16 210135Z AUTO 11003KT 10SM SCT018 OVC034 12/10 A3006 RMK AO2
 
KWVI - Watsonville, California, USA
Distancia de la estación: SSE 44km
Actualización: 21/02/2024 02:30
Lluvia débil, Neblina, Cubierto
Lluvia débil, Neblina, Cubierto
 Viento de calm
Viento: Calma
Temperatura: 11°C
Rocío: 11°C
Humedad: 100%
Barómetro: 1017.6 hPa
Resumen: Lluvia débil, Neblina
Nubes: Cubierto
Visibilidad: 6 km
Detalles de las nubes: Parcialmente nuboso 610 m
Muy nuboso 792 m
Cubierto 1219 m
2024/02/21 01:30 KWVI 210130Z AUTO 00000KT 4SM -RA BR SCT020 BKN026 OVC040 11/11 A3005 RMK AO2 RAB0054 P0002 T01110106
KHAF - Half Moon Bay, California, USA
Distancia de la estación: ONO 50km
Actualización: 21/02/2024 02:35
Neblina, Cubierto
Neblina, Cubierto
 Viento de calm
Viento: Calma
Temperatura: 12°C
Rocío: 11°C
Humedad: 94%
Barómetro: 1016.9 hPa
Resumen: Neblina
Nubes: Cubierto
Visibilidad: 8 km
Detalles de las nubes: Muy nuboso 671 m
Cubierto 1036 m
2024/02/21 01:35 KHAF 210135Z AUTO 00000KT 5SM BR BKN022 OVC034 12/11 A3003 RMK AO2
 
KHWD - Hayward, California, USA
Distancia de la estación: N 44km
Actualización: 21/02/2024 01:54
Muy nuboso
Muy nuboso
 Viento de SE
Viento: SE 7 km/h
Temperatura: 13°C
Rocío: 9°C
Humedad: 77%
Barómetro: 1016.6 hPa
Nubes: Muy nuboso
Visibilidad: 16 km
Detalles de las nubes: Muy nuboso 945 m
Muy nuboso 1676 m
2024/02/21 00:54 KHWD 210054Z 13004KT 10SM BKN031 BKN055 13/09 A3002 RMK AO2 RAE04B42E53 SLP175 P0000 T01280094
KLVK - Livermore, California, USA
Distancia de la estación: NNE 51km
Actualización: 21/02/2024 01:53
Cubierto
Cubierto
 Viento de calm
Viento: Calma
Temperatura: 11°C
Rocío: 9°C
Humedad: 88%
Barómetro: 1016.6 hPa
Nubes: Cubierto
Visibilidad: 16 km
Detalles de las nubes: Muy nuboso 1250 m
Cubierto 1676 m
2024/02/21 00:53 KLVK 210053Z 00000KT 10SM BKN041 OVC055 11/09 A3002 RMK AO2 RAE29 SLP164 P0001 T01110089